Time;durP1;ratioP1;P1;durP2;ratioP2;P2;SDS_P1;SDS_P2;PMS_P1;PMS_P2;Temp;Humidity;BMP_temperature;BMP_pressure;BME280_temperature;BME280_humidity;BME280_pressure;Samples;Min_cycle;Max_cycle;Signal;HPM_P1;HPM_P2
2023/04/10 20:06:42;;;;;;;5.30;3.15;;;;;;;11.26;64.44;96209.25;5091540;27;20560;-70
2023/04/10 20:09:09;;;;;;;9.52;3.65;;;;;;;11.28;61.95;96215.19;5090663;28;20888;-70
2023/04/10 20:11:36;;;;;;;9.40;3.53;;;;;;;11.28;62.65;96214.38;5090688;28;20233;-70
2023/04/10 20:14:02;;;;;;;8.18;3.13;;;;;;;11.19;63.28;96213.63;5091393;28;20214;-70
2023/04/10 20:16:29;;;;;;;5.30;2.50;;;;;;;11.10;64.63;96203.34;5089587;28;21040;-70
2023/04/10 20:18:55;;;;;;;6.93;2.55;;;;;;;11.13;64.25;96208.25;5091337;28;20241;-70
2023/04/10 20:21:22;;;;;;;5.95;2.53;;;;;;;11.16;62.35;96211.38;5090776;28;20215;-70
2023/04/10 20:23:50;;;;;;;6.67;2.13;;;;;;;11.27;63.54;96215.38;5088095;28;20199;-70
2023/04/10 20:26:17;;;;;;;5.00;2.87;;;;;;;11.19;63.43;96216.25;5091184;28;20223;-70
2023/04/10 20:28:43;;;;;;;4.03;2.23;;;;;;;11.10;63.31;96204.16;5088837;28;20207;-70
2023/04/10 20:31:13;;;;;;;7.05;2.45;;;;;;;11.13;62.89;96202.97;5090965;28;20199;-70
2023/04/10 20:33:39;;;;;;;4.93;2.40;;;;;;;11.14;65.02;96209.91;5091611;28;20198;-70
2023/04/10 20:36:07;;;;;;;5.20;2.60;;;;;;;11.13;65.37;96208.25;5091306;28;20676;-70
2023/04/10 20:38:33;;;;;;;3.67;2.30;;;;;;;11.02;64.79;96201.63;5089937;28;20207;-70
2023/04/10 20:41:02;;;;;;;13.10;2.87;;;;;;;11.13;65.12;96197.72;5090551;28;20199;-70
2023/04/10 20:43:28;;;;;;;28.33;2.70;;;;;;;10.99;66.36;96204.59;5091388;28;20282;-70
2023/04/10 20:45:55;;;;;;;61.43;3.87;;;;;;;11.03;64.68;96205.06;5089649;28;20238;-70
2023/04/10 20:48:21;;;;;;;5.73;2.20;;;;;;;11.03;65.13;96203.22;5089853;28;20274;-70
2023/04/10 20:50:48;;;;;;;24.90;2.60;;;;;;;11.14;60.73;96200.16;5089458;28;20210;-70
2023/04/10 20:53:15;;;;;;;27.07;3.30;;;;;;;11.22;60.75;96197.44;5092074;28;20227;-70
2023/04/10 20:55:41;;;;;;;9.13;4.93;;;;;;;11.29;59.13;96201.00;5091453;28;20333;-71
2023/04/10 20:58:09;;;;;;;39.33;5.00;;;;;;;11.39;58.84;96201.53;5089662;28;20679;-71
2023/04/10 21:00:38;;;;;;;9.10;3.23;;;;;;;11.43;58.24;96196.69;5089624;28;20203;-71
2023/04/10 21:03:04;;;;;;;22.03;2.83;;;;;;;11.50;58.19;96195.81;5089695;28;21316;-71
2023/04/10 21:05:31;;;;;;;9.10;3.20;;;;;;;11.53;57.86;96200.72;5090889;28;20309;-71
2023/04/10 21:07:57;;;;;;;9.93;3.20;;;;;;;11.50;58.49;96198.47;5089368;28;20204;-71
2023/04/10 21:10:24;;;;;;;7.10;3.20;;;;;;;11.54;58.38;96199.72;5091794;28;20195;-71
2023/04/10 21:12:50;;;;;;;5.83;2.67;;;;;;;11.56;58.59;96200.38;5091961;28;20230;-71
2023/04/10 21:15:18;;;;;;;6.13;3.00;;;;;;;11.61;58.11;96192.72;5092506;28;20206;-71
2023/04/10 21:17:45;;;;;;;4.67;2.80;;;;;;;11.57;57.70;96192.28;5079676;28;20200;-71
2023/04/10 21:20:12;;;;;;;5.93;3.37;;;;;;;11.58;58.24;96188.63;5079289;28;20210;-69
2023/04/10 21:22:38;;;;;;;5.17;3.10;;;;;;;11.63;57.54;96186.25;5078201;28;20224;-69
2023/04/10 21:25:05;;;;;;;6.10;3.30;;;;;;;11.60;58.91;96181.34;5078703;28;20228;-69
2023/04/10 21:27:32;;;;;;;5.67;2.70;;;;;;;11.62;58.90;96173.22;5078273;28;20227;-69
2023/04/10 21:29:58;;;;;;;18.03;3.20;;;;;;;11.54;58.79;96173.34;5078255;28;20664;-69
2023/04/10 21:32:26;;;;;;;6.37;2.93;;;;;;;11.62;58.41;96162.66;5078246;28;20307;-69
2023/04/10 21:34:53;;;;;;;5.70;2.53;;;;;;;11.50;59.27;96169.44;5079349;28;20210;-69
2023/04/10 21:37:19;;;;;;;9.80;3.00;;;;;;;11.49;60.20;96166.94;5078477;28;20214;-69
2023/04/10 21:39:46;;;;;;;6.23;2.97;;;;;;;11.40;59.06;96160.94;5078932;28;21159;-70
2023/04/10 21:42:12;;;;;;;4.73;2.70;;;;;;;11.36;60.74;96143.03;5079380;28;20237;-69
2023/04/10 21:44:38;;;;;;;5.63;3.10;;;;;;;11.35;60.06;96144.84;5079305;28;20203;-69
2023/04/10 21:47:05;;;;;;;9.23;3.10;;;;;;;11.26;60.42;96150.41;5082481;28;20223;-70
2023/04/10 21:49:33;;;;;;;8.73;2.77;;;;;;;11.31;61.76;96148.84;5078467;28;20208;-69
2023/04/10 21:51:59;;;;;;;4.90;2.57;;;;;;;11.20;61.11;96149.34;5077755;28;20211;-69
2023/04/10 21:54:26;;;;;;;6.50;2.83;;;;;;;11.19;60.34;96145.06;5078449;28;20591;-69
2023/04/10 21:56:52;;;;;;;5.83;2.87;;;;;;;11.23;59.92;96143.69;5078041;28;20206;-69
2023/04/10 21:59:19;;;;;;;4.00;2.20;;;;;;;11.21;60.76;96145.66;5078145;28;20200;-69
2023/04/10 22:01:45;;;;;;;6.10;2.33;;;;;;;11.18;60.21;96153.16;5077793;28;20715;-69
2023/04/10 22:04:12;;;;;;;4.47;2.37;;;;;;;11.22;60.16;96144.69;5078009;28;20218;-69
2023/04/10 22:06:40;;;;;;;4.63;2.07;;;;;;;11.31;59.90;96135.66;5076589;28;20228;-69
2023/04/10 22:09:06;;;;;;;5.37;2.23;;;;;;;11.25;59.60;96128.50;5076135;28;20196;-69
2023/04/10 22:11:33;;;;;;;5.60;2.37;;;;;;;11.21;60.19;96127.22;5077150;28;20224;-69
2023/04/10 22:14:00;;;;;;;4.97;2.57;;;;;;;11.23;60.48;96130.50;5078161;28;20202;-69
2023/04/10 22:16:26;;;;;;;3.63;1.87;;;;;;;11.25;60.31;96127.66;5076936;28;20338;-69
2023/04/10 22:18:53;;;;;;;3.63;1.83;;;;;;;11.14;61.72;96146.59;5077033;28;20906;-69
2023/04/10 22:21:19;;;;;;;3.13;2.10;;;;;;;11.16;61.33;96140.16;5077321;28;20223;-69
2023/04/10 22:23:47;;;;;;;3.33;2.10;;;;;;;11.19;60.61;96145.06;5077181;28;20215;-69
2023/04/10 22:26:14;;;;;;;4.03;1.63;;;;;;;11.21;60.55;96143.03;5077405;28;20227;-69
2023/04/10 22:28:40;;;;;;;3.67;2.00;;;;;;;11.25;60.55;96144.34;5076095;28;20208;-69
2023/04/10 22:31:14;;;;;;;3.17;1.70;;;;;;;11.33;60.90;96133.69;5077086;28;20200;-70
2023/04/10 22:33:40;;;;;;;3.80;1.87;;;;;;;11.34;60.71;96135.31;5077739;28;20208;-69
2023/04/10 22:36:08;;;;;;;3.20;1.60;;;;;;;11.36;61.14;96135.13;5077103;28;20203;-69
2023/04/10 22:38:34;;;;;;;3.80;2.07;;;;;;;11.41;61.23;96136.19;5076546;28;20562;-69
2023/04/10 22:41:02;;;;;;;2.70;1.70;;;;;;;11.47;61.21;96132.84;5077743;28;20203;-69
2023/04/10 22:43:29;;;;;;;3.00;1.90;;;;;;;11.41;62.00;96127.47;5078209;28;20944;-69
2023/04/10 22:45:55;;;;;;;3.97;2.07;;;;;;;11.39;62.50;96126.84;5077318;28;20223;-69
2023/04/10 22:48:22;;;;;;;2.13;1.50;;;;;;;11.41;62.40;96117.72;5075720;28;20210;-69
2023/04/10 22:50:48;;;;;;;2.97;2.07;;;;;;;11.47;62.18;96105.63;5076410;28;20227;-69
2023/04/10 22:53:15;;;;;;;5.90;2.20;;;;;;;11.34;63.16;96101.03;5076000;28;20228;-69
2023/04/10 22:55:41;;;;;;;3.07;1.50;;;;;;;11.32;63.20;96097.75;5075785;28;20200;-69
2023/04/10 22:58:10;;;;;;;4.40;1.73;;;;;;;11.38;63.39;96102.28;5075174;28;20203;-69
2023/04/10 23:00:37;;;;;;;2.70;1.53;;;;;;;11.33;63.09;96104.66;5075782;28;20200;-69
2023/04/10 23:03:03;;;;;;;1.17;1.07;;;;;;;11.28;64.15;96103.59;5077480;28;20232;-69
2023/04/10 23:05:31;;;;;;;1.93;1.00;;;;;;;11.37;63.33;96100.63;5077541;28;20223;-69
2023/04/10 23:07:58;;;;;;;3.57;1.70;;;;;;;11.37;63.66;96097.19;5077026;28;20214;-69
2023/04/10 23:10:24;;;;;;;2.77;1.67;;;;;;;11.39;63.67;96089.91;5076903;28;20207;-69
2023/04/10 23:12:51;;;;;;;3.93;1.40;;;;;;;11.33;64.05;96088.81;5077270;28;20228;-69
2023/04/10 23:15:19;;;;;;;2.53;1.47;;;;;;;11.44;63.93;96080.41;5077328;28;20660;-70
2023/04/10 23:17:45;;;;;;;1.07;0.90;;;;;;;11.34;64.55;96073.81;5076223;28;20215;-69
2023/04/10 23:20:12;;;;;;;1.60;1.17;;;;;;;11.34;64.53;96063.25;5077348;28;20208;-69
2023/04/10 23:22:39;;;;;;;3.03;1.33;;;;;;;11.26;64.71;96058.91;5077313;28;20613;-69
2023/04/10 23:25:06;;;;;;;2.83;1.33;;;;;;;11.29;65.02;96055.91;5077458;28;20215;-69
2023/04/10 23:27:32;;;;;;;1.90;1.23;;;;;;;11.31;64.84;96059.16;5076473;28;20227;-69
2023/04/10 23:30:00;;;;;;;2.73;1.53;;;;;;;11.39;65.60;96053.81;5077111;28;20200;-69
2023/04/10 23:32:28;;;;;;;2.37;1.10;;;;;;;11.49;64.71;96056.94;5077394;28;20224;-69
2023/04/10 23:34:55;;;;;;;2.10;1.50;;;;;;;11.44;65.87;96043.47;5077564;28;20207;-69
2023/04/10 23:37:21;;;;;;;1.67;1.10;;;;;;;11.52;64.90;96038.13;5076251;28;20489;-69
2023/04/10 23:39:48;;;;;;;0.80;0.80;;;;;;;11.57;64.75;96026.00;5077116;28;20208;-69
2023/04/10 23:42:14;;;;;;;12.10;1.53;;;;;;;11.64;64.72;96010.25;5076819;28;20246;-69
2023/04/10 23:44:40;;;;;;;2.00;1.00;;;;;;;11.83;63.24;95993.75;5076885;28;20211;-69
2023/04/10 23:47:07;;;;;;;0.83;0.83;;;;;;;11.94;62.87;95987.94;5076605;28;20219;-69
2023/04/10 23:49:35;;;;;;;2.33;1.53;;;;;;;11.96;63.88;95985.94;5076412;28;20211;-69
2023/04/10 23:52:01;;;;;;;1.50;0.90;;;;;;;11.87;63.79;95974.69;5076142;28;21087;-69
2023/04/10 23:54:29;;;;;;;1.00;0.87;;;;;;;11.87;64.02;95977.34;5077282;28;20202;-70
2023/04/10 23:56:55;;;;;;;1.17;1.07;;;;;;;11.82;63.29;95976.28;5077024;28;20196;-69
2023/04/10 23:59:22;;;;;;;2.00;1.20;;;;;;;11.93;62.72;95981.06;5075859;28;20195;-69
